Time,TemperatureF,DewpointF,PressureIn,WindDirection,WindDirectionDegrees,WindSpeedMPH,WindSpeedGustMPH,Humidity,HourlyPrecipIn,Conditions,Clouds,dailyrainin,SoftwareType,DateUTC
2013-02-28 00:11:00,17.4,12.0,30.23,West,280,0.0,1.0,79,0.00,,,0.00,weatherlink.com 1.10,2013-02-28 07:11:00,
2013-02-28 00:26:00,17.0,12.0,30.23,West,264,0.0,1.0,80,0.00,,,0.00,weatherlink.com 1.10,2013-02-28 07:26:00,
2013-02-28 00:41:00,16.2,11.0,30.23,WSW,245,0.0,1.0,81,0.00,,,0.00,weatherlink.com 1.10,2013-02-28 07:41:00,
2013-02-28 00:56:00,16.4,12.0,30.24,West,266,1.0,2.0,81,0.00,,,0.00,weatherlink.com 1.10,2013-02-28 07:56:00,
2013-02-28 01:11:00,16.4,12.0,30.23,West,270,0.0,1.0,81,0.00,,,0.00,weatherlink.com 1.10,2013-02-28 08:11:00,
2013-02-28 01:26:00,17.0,12.0,30.23,WNW,302,0.0,2.0,81,0.00,,,0.00,weatherlink.com 1.10,2013-02-28 08:26:00,
2013-02-28 01:41:00,16.6,12.0,30.23,WNW,293,2.0,2.0,81,0.00,,,0.00,weatherlink.com 1.10,2013-02-28 08:41:00,
2013-02-28 01:56:00,16.0,11.0,30.23,SW,229,0.0,1.0,80,0.00,,,0.00,weatherlink.com 1.10,2013-02-28 08:56:00,
2013-02-28 02:11:00,15.4,11.0,30.23,WSW,252,1.0,1.0,83,0.00,,,0.00,weatherlink.com 1.10,2013-02-28 09:11:00,
2013-02-28 02:26:00,15.1,11.0,30.23,WSW,252,0.0,1.0,84,0.00,,,0.00,weatherlink.com 1.10,2013-02-28 09:26:00,
2013-02-28 02:41:00,14.6,11.0,30.22,SW,221,0.0,0.0,84,0.00,,,0.00,weatherlink.com 1.10,2013-02-28 09:41:00,
2013-02-28 02:56:00,13.7,11.0,30.22,SW,221,0.0,0.0,88,0.00,,,0.00,weatherlink.com 1.10,2013-02-28 09:56:00,
2013-02-28 03:11:00,15.2,12.0,30.22,NNW,328,1.0,2.0,86,0.00,,,0.00,weatherlink.com 1.10,2013-02-28 10:11:00,
2013-02-28 03:26:00,15.3,11.0,30.22,WNW,302,0.0,1.0,84,0.00,,,0.00,weatherlink.com 1.10,2013-02-28 10:26:00,
2013-02-28 03:41:00,14.9,11.0,30.22,WNW,302,0.0,1.0,85,0.00,,,0.00,weatherlink.com 1.10,2013-02-28 10:41:00,
2013-02-28 03:56:00,9.7,6.0,30.22,WNW,302,0.0,0.0,83,0.00,,,0.00,weatherlink.com 1.10,2013-02-28 10:56:00,
2013-02-28 04:11:00,-999.0,-99.9,30.22,North,-999,-999.0,-999.0,-999,0.00,,,0.00,weatherlink.com 1.10,2013-02-28 11:11:00,
2013-02-28 04:26:00,-999.0,-99.9,30.22,North,-999,-999.0,-999.0,-999,0.00,,,0.00,weatherlink.com 1.10,2013-02-28 11:26:00,
2013-02-28 04:41:00,-999.0,-99.9,30.22,North,-999,-999.0,-999.0,-999,0.00,,,0.00,weatherlink.com 1.10,2013-02-28 11:41:00,
2013-02-28 04:56:00,-999.0,-99.9,30.22,North,-999,-999.0,-999.0,-999,0.00,,,0.00,weatherlink.com 1.10,2013-02-28 11:56:00,
2013-02-28 05:11:00,-999.0,-99.9,30.21,North,-999,-999.0,-999.0,-999,0.00,,,0.00,weatherlink.com 1.10,2013-02-28 12:11:00,
2013-02-28 05:26:00,-999.0,-99.9,30.21,North,-999,-999.0,-999.0,-999,0.00,,,0.00,weatherlink.com 1.10,2013-02-28 12:26:00,
2013-02-28 05:41:00,-999.0,-99.9,30.22,North,-999,-999.0,-999.0,-999,0.00,,,0.00,weatherlink.com 1.10,2013-02-28 12:41:00,
2013-02-28 05:56:00,-999.0,-99.9,30.22,North,-999,-999.0,-999.0,-999,0.00,,,0.00,weatherlink.com 1.10,2013-02-28 12:56:00,
2013-02-28 06:12:00,-999.0,-99.9,30.21,North,-999,-999.0,-999.0,-999,0.00,,,0.00,weatherlink.com 1.10,2013-02-28 13:12:00,
2013-02-28 06:27:00,-999.0,-99.9,30.21,North,-999,-999.0,-999.0,-999,0.00,,,0.00,weatherlink.com 1.10,2013-02-28 13:27:00,
2013-02-28 06:42:00,-999.0,-99.9,30.21,North,-999,-999.0,-999.0,-999,0.00,,,0.00,weatherlink.com 1.10,2013-02-28 13:42:00,
2013-02-28 06:57:00,-999.0,-99.9,30.21,North,-999,-999.0,-999.0,-999,0.00,,,0.00,weatherlink.com 1.10,2013-02-28 13:57:00,
2013-02-28 07:12:00,20.4,12.0,30.22,West,274,0.0,0.0,71,0.00,,,0.00,weatherlink.com 1.10,2013-02-28 14:12:00,
2013-02-28 07:27:00,21.7,13.0,30.23,West,278,0.0,1.0,69,0.00,,,0.00,weatherlink.com 1.10,2013-02-28 14:27:00,
2013-02-28 07:42:00,22.7,14.0,30.24,WSW,243,0.0,2.0,69,0.00,,,0.00,weatherlink.com 1.10,2013-02-28 14:42:00,
2013-02-28 07:57:00,24.8,14.0,30.25,WSW,257,2.0,4.0,63,0.00,,,0.00,weatherlink.com 1.10,2013-02-28 14:57:00,
2013-02-28 08:12:00,26.8,14.0,30.25,West,262,3.0,5.0,60,0.00,,,0.00,weatherlink.com 1.10,2013-02-28 15:12:00,
2013-02-28 08:27:00,28.5,15.0,30.26,WSW,256,1.0,6.0,57,0.00,,,0.00,weatherlink.com 1.10,2013-02-28 15:27:00,
2013-02-28 08:42:00,30.1,15.0,30.26,WSW,245,3.0,10.0,54,0.00,,,0.00,weatherlink.com 1.10,2013-02-28 15:42:00,
2013-02-28 08:57:00,32.6,14.0,30.26,WNW,291,5.0,8.0,47,0.00,,,0.00,weatherlink.com 1.10,2013-02-28 15:57:00,
2013-02-28 09:12:00,33.7,14.0,30.26,WSW,252,3.0,8.0,45,0.00,,,0.00,weatherlink.com 1.10,2013-02-28 16:12:00,
2013-02-28 09:27:00,34.6,12.0,30.26,WSW,238,10.0,13.0,40,0.00,,,0.00,weatherlink.com 1.10,2013-02-28 16:27:00,
2013-02-28 09:42:00,35.2,12.0,30.26,WNW,285,6.0,11.0,39,0.00,,,0.00,weatherlink.com 1.10,2013-02-28 16:42:00,
2013-02-28 09:58:00,36.7,13.0,30.26,WNW,302,7.0,12.0,37,0.00,,,0.00,weatherlink.com 1.10,2013-02-28 16:58:00,
2013-02-28 10:13:00,37.4,12.0,30.25,West,263,6.0,12.0,35,0.00,,,0.00,weatherlink.com 1.10,2013-02-28 17:13:00,
2013-02-28 10:28:00,37.6,12.0,30.25,West,260,9.0,15.0,35,0.00,,,0.00,weatherlink.com 1.10,2013-02-28 17:28:00,
2013-02-28 10:43:00,38.2,12.0,30.24,WNW,295,9.0,14.0,34,0.00,,,0.00,weatherlink.com 1.10,2013-02-28 17:43:00,
2013-02-28 10:58:00,39.3,12.0,30.24,West,266,5.0,14.0,33,0.00,,,0.00,weatherlink.com 1.10,2013-02-28 17:58:00,
2013-02-28 11:13:00,39.8,12.0,30.24,WNW,288,6.0,15.0,32,0.00,,,0.00,weatherlink.com 1.10,2013-02-28 18:13:00,
2013-02-28 11:28:00,40.8,14.0,30.23,West,280,5.0,11.0,33,0.00,,,0.00,weatherlink.com 1.10,2013-02-28 18:28:00,
2013-02-28 11:43:00,40.2,12.0,30.23,WSW,257,3.0,12.0,31,0.00,,,0.00,weatherlink.com 1.10,2013-02-28 18:43:00,
2013-02-28 11:58:00,42.1,11.0,30.21,WNW,302,8.0,12.0,28,0.00,,,0.00,weatherlink.com 1.10,2013-02-28 18:58:00,
2013-02-28 12:13:00,42.2,11.0,30.21,WNW,302,8.0,13.0,28,0.00,,,0.00,weatherlink.com 1.10,2013-02-28 19:13:00,
2013-02-28 12:28:00,42.9,12.0,30.19,WNW,295,8.0,16.0,28,0.00,,,0.00,weatherlink.com 1.10,2013-02-28 19:28:00,
2013-02-28 12:43:00,43.2,12.0,30.18,SSW,207,5.0,12.0,28,0.00,,,0.00,weatherlink.com 1.10,2013-02-28 19:43:00,
2013-02-28 12:58:00,44.7,12.0,30.18,WSW,244,5.0,8.0,27,0.00,,,0.00,weatherlink.com 1.10,2013-02-28 19:58:00,
2013-02-28 13:13:00,43.9,13.0,30.17,WNW,302,7.0,14.0,28,0.00,,,0.00,weatherlink.com 1.10,2013-02-28 20:13:00,
2013-02-28 13:28:00,45.2,12.0,30.17,WNW,300,5.0,9.0,26,0.00,,,0.00,weatherlink.com 1.10,2013-02-28 20:28:00,
2013-02-28 13:43:00,43.6,11.0,30.17,NNW,336,4.0,14.0,27,0.00,,,0.00,weatherlink.com 1.10,2013-02-28 20:43:00,
2013-02-28 13:58:00,43.8,12.0,30.17,West,274,6.0,8.0,28,0.00,,,0.00,weatherlink.com 1.10,2013-02-28 20:58:00,
2013-02-28 14:13:00,44.0,12.0,30.16,WSW,238,4.0,11.0,27,0.00,,,0.00,weatherlink.com 1.10,2013-02-28 21:13:00,
2013-02-28 14:28:00,44.3,14.0,30.16,West,278,6.0,15.0,29,0.00,,,0.00,weatherlink.com 1.10,2013-02-28 21:28:00,
2013-02-28 14:44:00,42.4,14.0,30.16,NW,323,9.0,13.0,31,0.00,,,0.00,weatherlink.com 1.10,2013-02-28 21:44:00,
2013-02-28 14:58:00,42.4,14.0,30.16,West,273,12.0,15.0,31,0.00,,,0.00,weatherlink.com 1.10,2013-02-28 21:58:00,
2013-02-28 15:13:00,42.0,12.0,30.16,NW,309,11.0,18.0,29,0.00,,,0.00,weatherlink.com 1.10,2013-02-28 22:13:00,
2013-02-28 15:28:00,42.2,13.0,30.16,West,267,5.0,15.0,30,0.00,,,0.00,weatherlink.com 1.10,2013-02-28 22:28:00,
2013-02-28 15:43:00,41.9,13.0,30.15,West,259,7.0,15.0,31,0.00,,,0.00,weatherlink.com 1.10,2013-02-28 22:43:00,
2013-02-28 15:58:00,42.0,13.0,30.15,WNW,291,8.0,15.0,30,0.00,,,0.00,weatherlink.com 1.10,2013-02-28 22:58:00,
2013-02-28 16:13:00,41.9,13.0,30.16,WNW,302,6.0,15.0,31,0.00,,,0.00,weatherlink.com 1.10,2013-02-28 23:13:00,
2013-02-28 16:28:00,41.3,13.0,30.16,WNW,300,7.0,13.0,32,0.00,,,0.00,weatherlink.com 1.10,2013-02-28 23:28:00,
2013-02-28 16:43:00,40.7,14.0,30.16,WNW,285,4.0,16.0,33,0.00,,,0.00,weatherlink.com 1.10,2013-02-28 23:43:00,
2013-02-28 16:58:00,40.3,15.0,30.17,WNW,296,10.0,13.0,35,0.00,,,0.00,weatherlink.com 1.10,2013-02-28 23:58:00,
2013-02-28 17:13:00,39.7,15.0,30.17,NW,319,7.0,12.0,37,0.00,,,0.00,weatherlink.com 1.10,2013-03-01 00:13:00,
2013-02-28 17:28:00,38.9,16.0,30.17,WNW,288,6.0,11.0,39,0.00,,,0.00,weatherlink.com 1.10,2013-03-01 00:28:00,
2013-02-28 17:43:00,37.8,15.0,30.17,WNW,290,3.0,9.0,40,0.00,,,0.00,weatherlink.com 1.10,2013-03-01 00:43:00,
2013-02-28 17:58:00,36.5,15.0,30.18,West,280,2.0,7.0,41,0.00,,,0.00,weatherlink.com 1.10,2013-03-01 00:58:00,
2013-02-28 18:13:00,34.5,15.0,30.19,WNW,295,3.0,6.0,45,0.00,,,0.00,weatherlink.com 1.10,2013-03-01 01:13:00,
2013-02-28 18:28:00,32.5,15.0,30.19,West,259,1.0,3.0,48,0.00,,,0.00,weatherlink.com 1.10,2013-03-01 01:28:00,
2013-02-28 18:43:00,32.3,15.0,30.20,West,266,1.0,5.0,49,0.00,,,0.00,weatherlink.com 1.10,2013-03-01 01:43:00,
2013-02-28 18:59:00,32.3,15.0,30.19,SSW,197,0.0,4.0,50,0.00,,,0.00,weatherlink.com 1.10,2013-03-01 01:59:00,
2013-02-28 19:14:00,32.1,16.0,30.19,West,267,0.0,4.0,51,0.00,,,0.00,weatherlink.com 1.10,2013-03-01 02:14:00,
2013-02-28 19:29:00,31.1,15.0,30.20,WSW,238,1.0,1.0,52,0.00,,,0.00,weatherlink.com 1.10,2013-03-01 02:29:00,
2013-02-28 19:44:00,30.9,16.0,30.20,WNW,287,1.0,1.0,54,0.00,,,0.00,weatherlink.com 1.10,2013-03-01 02:44:00,
2013-02-28 19:59:00,31.4,15.0,30.21,NW,304,4.0,6.0,52,0.00,,,0.00,weatherlink.com 1.10,2013-03-01 02:59:00,
2013-02-28 20:14:00,31.6,16.0,30.20,WNW,289,2.0,5.0,52,0.00,,,0.00,weatherlink.com 1.10,2013-03-01 03:14:00,
2013-02-28 20:29:00,30.6,16.0,30.21,WNW,295,1.0,5.0,54,0.00,,,0.00,weatherlink.com 1.10,2013-03-01 03:29:00,
2013-02-28 20:44:00,28.8,16.0,30.21,West,269,2.0,3.0,59,0.00,,,0.00,weatherlink.com 1.10,2013-03-01 03:44:00,
2013-02-28 20:59:00,28.9,16.0,30.22,WNW,300,2.0,5.0,59,0.00,,,0.00,weatherlink.com 1.10,2013-03-01 03:59:00,
2013-02-28 21:14:00,28.5,16.0,30.23,WNW,289,3.0,6.0,60,0.00,,,0.00,weatherlink.com 1.10,2013-03-01 04:14:00,
2013-02-28 21:29:00,28.2,17.0,30.23,West,263,2.0,8.0,63,0.00,,,0.00,weatherlink.com 1.10,2013-03-01 04:29:00,
2013-02-28 21:44:00,27.5,17.0,30.23,WNW,285,2.0,3.0,64,0.00,,,0.00,weatherlink.com 1.10,2013-03-01 04:44:00,
2013-02-28 21:59:00,26.7,17.0,30.23,West,277,1.0,3.0,66,0.00,,,0.00,weatherlink.com 1.10,2013-03-01 04:59:00,
2013-02-28 22:14:00,26.3,17.0,30.23,WNW,287,1.0,2.0,68,0.00,,,0.00,weatherlink.com 1.10,2013-03-01 05:14:00,
2013-02-28 22:29:00,25.0,17.0,30.23,SW,235,0.0,1.0,70,0.00,,,0.00,weatherlink.com 1.10,2013-03-01 05:29:00,
2013-02-28 22:44:00,25.4,17.0,30.23,NNW,345,1.0,2.0,70,0.00,,,0.00,weatherlink.com 1.10,2013-03-01 05:44:00,
2013-02-28 22:59:00,25.6,17.0,30.24,WNW,298,2.0,3.0,69,0.00,,,0.00,weatherlink.com 1.10,2013-03-01 05:59:00,
2013-02-28 23:14:00,25.9,17.0,30.25,WNW,285,2.0,3.0,69,0.00,,,0.00,weatherlink.com 1.10,2013-03-01 06:14:00,
2013-02-28 23:29:00,25.3,17.0,30.25,WNW,287,1.0,2.0,70,0.00,,,0.00,weatherlink.com 1.10,2013-03-01 06:29:00,
2013-02-28 23:44:00,25.0,17.0,30.26,WSW,240,3.0,4.0,73,0.00,,,0.00,weatherlink.com 1.10,2013-03-01 06:44:00,
2013-02-28 23:59:00,25.3,18.0,30.26,WNW,283,2.0,4.0,73,0.00,,,0.00,weatherlink.com 1.10,2013-03-01 06:59:00,